Time;durP1;ratioP1;P1;durP2;ratioP2;P2;SDS_P1;SDS_P2;PMS_P1;PMS_P2;Temp;Humidity;BMP_temperature;BMP_pressure;BME280_temperature;BME280_humidity;BME280_pressure;Samples;Min_cycle;Max_cycle;Signal;HPM_P1;HPM_P2
2022/07/13 00:02:15;;;;;;;4.00;1.60;;;;;;;16.59;58.41;100653.33;108735;1275;21995;-79
2022/07/13 00:04:44;;;;;;;3.50;1.60;;;;;;;16.59;58.58;100645.13;108782;1272;22760;-80
2022/07/13 00:07:14;;;;;;;2.30;1.50;;;;;;;16.60;58.59;100645.25;108630;1273;22108;-79
2022/07/13 00:09:44;;;;;;;3.30;1.30;;;;;;;16.58;58.54;100641.38;108452;1274;22053;-81
2022/07/13 00:12:20;;;;;;;3.20;1.80;;;;;;;16.55;58.75;100641.13;108723;1267;21976;-80
2022/07/13 00:14:55;;;;;;;2.30;1.40;;;;;;;16.49;58.84;100640.82;109113;1270;21984;-80
2022/07/13 00:17:27;;;;;;;5.40;2.60;;;;;;;16.45;59.05;100637.16;108664;1276;22590;-84
2022/07/13 00:20:03;;;;;;;3.80;1.80;;;;;;;16.45;59.05;100640.60;108652;1276;23245;-79
2022/07/13 00:22:43;;;;;;;;;;;;;;;;;;;;;
2022/07/13 00:25:13;;;;;;;3.60;1.80;;;;;;;16.44;59.43;100635.88;108541;1276;23111;-79
2022/07/13 00:28:08;;;;;;;3.90;1.20;;;;;;;16.44;59.47;100633.77;108468;1279;21989;-80
2022/07/13 00:30:44;;;;;;;5.50;1.60;;;;;;;16.42;59.64;100631.52;108595;1279;21988;-80
2022/07/13 00:33:42;;;;;;;3.10;1.20;;;;;;;16.38;59.62;100632.25;108510;1276;22805;-81
2022/07/13 00:36:17;;;;;;;3.60;1.70;;;;;;;16.35;59.67;100630.52;108799;1273;21979;-81
2022/07/13 00:38:46;;;;;;;;;;;;;;;16.34;59.69;100631.20;108975;1267;21979;-80
2022/07/13 00:41:22;;;;;;;6.00;2.10;;;;;;;16.26;59.90;100632.07;109449;1267;21981;-80
2022/07/13 00:44:15;;;;;;;4.00;1.50;;;;;;;16.25;60.17;100630.18;108978;1273;23197;-81
2022/07/13 00:46:53;;;;;;;;;;;;;;;16.28;60.33;100622.90;108636;1276;21978;-80
2022/07/13 00:49:23;;;;;;;2.60;1.40;;;;;;;16.21;60.36;100624.13;108110;1278;23612;-80
2022/07/13 00:51:53;;;;;;;4.30;1.40;;;;;;;16.22;60.57;100626.27;108589;1279;22001;-80
2022/07/13 00:54:30;;;;;;;2.20;1.30;;;;;;;16.24;60.63;100626.04;108289;1279;22062;-82
2022/07/13 00:57:03;;;;;;;4.90;1.70;;;;;;;16.23;60.81;100627.75;108407;1279;23141;-80
2022/07/13 00:59:34;;;;;;;;;;;;;;;16.22;61.06;100628.02;108378;1279;23086;-78
2022/07/13 01:02:09;;;;;;;2.90;1.40;;;;;;;16.12;61.18;100624.98;108368;1273;23071;-79
2022/07/13 01:04:41;;;;;;;3.80;1.70;;;;;;;16.10;61.39;100628.71;108662;1271;21983;-80
2022/07/13 01:07:22;;;;;;;2.70;1.70;;;;;;;16.12;61.61;100625.98;108590;1275;23108;-80
2022/07/13 01:10:01;;;;;;;4.50;1.40;;;;;;;16.13;61.85;100625.98;108713;1272;23632;-79
2022/07/13 01:12:36;;;;;;;3.40;1.80;;;;;;;16.16;62.08;100626.20;108797;1272;22007;-79
2022/07/13 01:15:10;;;;;;;3.30;1.60;;;;;;;16.20;62.29;100628.19;108844;1272;22006;-79
2022/07/13 01:17:42;;;;;;;2.50;1.90;;;;;;;16.23;62.47;100628.09;108589;1272;22931;-79
2022/07/13 01:20:27;;;;;;;2.50;1.40;;;;;;;16.25;62.64;100628.58;108778;1273;22121;-80
2022/07/13 01:23:12;;;;;;;2.30;1.70;;;;;;;16.29;62.70;100628.84;108611;1276;23840;-80
2022/07/13 01:25:46;;;;;;;4.70;1.70;;;;;;;16.31;62.78;100629.45;108557;1273;23705;-79
2022/07/13 01:28:18;;;;;;;3.60;1.60;;;;;;;16.33;62.97;100628.98;108855;1273;22008;-80
2022/07/13 01:30:50;;;;;;;3.10;1.60;;;;;;;16.36;63.09;100625.27;109060;1270;22468;-80
2022/07/13 01:33:22;;;;;;;2.30;1.90;;;;;;;16.37;63.21;100618.50;109097;1270;21994;-81
2022/07/13 01:35:55;;;;;;;2.80;1.70;;;;;;;16.37;63.16;100613.42;109041;1270;23049;-79
2022/07/13 01:38:29;;;;;;;2.50;1.60;;;;;;;16.36;63.30;100610.61;109152;1270;23149;-80
2022/07/13 01:41:04;;;;;;;2.40;1.60;;;;;;;16.37;63.38;100607.70;108796;1268;22025;-81
2022/07/13 01:43:37;;;;;;;1.80;1.50;;;;;;;16.37;63.45;100605.34;108750;1273;21985;-81
2022/07/13 01:46:07;;;;;;;3.10;1.80;;;;;;;16.39;63.68;100609.00;108577;1275;22534;-81
2022/07/13 01:48:44;;;;;;;3.60;1.80;;;;;;;16.39;63.83;100609.48;108443;1279;23603;-80
2022/07/13 01:51:14;;;;;;;2.70;2.10;;;;;;;16.41;63.93;100608.34;108293;1278;21982;-81
2022/07/13 01:53:44;;;;;;;2.30;1.50;;;;;;;16.44;63.96;100606.38;108190;1283;22426;-81
2022/07/13 01:56:14;;;;;;;2.30;1.80;;;;;;;16.46;64.04;100603.73;108268;1283;22309;-81
2022/07/13 01:58:45;;;;;;;3.60;1.80;;;;;;;16.48;64.08;100602.54;107857;1283;23833;-80
2022/07/13 02:01:16;;;;;;;3.80;1.80;;;;;;;16.47;64.23;100599.38;108232;1279;22092;-80
2022/07/13 02:03:57;;;;;;;4.20;1.80;;;;;;;16.46;64.40;100593.95;108851;1279;23847;-80
2022/07/13 02:06:28;;;;;;;2.40;2.00;;;;;;;16.48;64.58;100592.04;108494;1273;21984;-80
2022/07/13 02:09:03;;;;;;;3.50;1.80;;;;;;;16.48;64.54;100588.96;108741;1273;21993;-80
2022/07/13 02:11:38;;;;;;;3.60;1.90;;;;;;;16.46;64.62;100583.54;108919;1273;23669;-80
2022/07/13 02:14:17;;;;;;;3.40;2.00;;;;;;;16.44;64.80;100577.38;108620;1278;22312;-81
2022/07/13 02:17:17;;;;;;;2.50;1.60;;;;;;;16.42;64.87;100572.29;108756;1273;21981;-82
2022/07/13 02:20:06;;;;;;;2.90;2.00;;;;;;;16.42;65.07;100573.35;109495;1264;22096;-81
2022/07/13 02:22:45;;;;;;;4.40;2.40;;;;;;;16.41;65.13;100569.42;109443;1264;21985;-82
2022/07/13 02:25:26;;;;;;;2.90;1.80;;;;;;;16.41;65.16;100571.23;109088;1270;22059;-81
2022/07/13 02:28:07;;;;;;;3.60;1.90;;;;;;;16.42;65.25;100566.42;108855;1270;22407;-80
2022/07/13 02:30:36;;;;;;;3.50;2.30;;;;;;;16.43;65.18;100566.10;108945;1270;21991;-79
2022/07/13 02:33:07;;;;;;;3.30;2.30;;;;;;;16.46;65.11;100572.02;108439;1276;23024;-79
2022/07/13 02:35:37;;;;;;;3.70;2.10;;;;;;;16.46;65.20;100571.44;108669;1276;22013;-79
2022/07/13 02:38:08;;;;;;;4.70;2.00;;;;;;;16.46;65.41;100572.22;108312;1277;21982;-79
2022/07/13 02:40:41;;;;;;;3.30;2.00;;;;;;;16.46;65.27;100574.27;108534;1276;21991;-79
2022/07/13 02:43:10;;;;;;;2.50;2.20;;;;;;;16.47;65.48;100573.98;108512;1273;22035;-80
2022/07/13 02:45:42;;;;;;;4.40;1.90;;;;;;;16.47;65.52;100575.05;108729;1274;22150;-81
2022/07/13 02:48:17;;;;;;;3.20;2.10;;;;;;;16.47;65.66;100574.68;108459;1278;22024;-80
2022/07/13 02:50:50;;;;;;;4.00;2.40;;;;;;;16.48;65.69;100574.71;108469;1276;22036;-80
2022/07/13 02:53:20;;;;;;;4.80;2.20;;;;;;;16.49;65.50;100574.44;108672;1273;22985;-80
2022/07/13 02:56:11;;;;;;;5.70;2.30;;;;;;;16.47;65.59;100572.50;108837;1267;22029;-80
2022/07/13 02:58:47;;;;;;;5.10;2.30;;;;;;;16.47;65.78;100577.84;108655;1274;23136;-80
2022/07/13 03:01:19;;;;;;;5.40;2.40;;;;;;;16.48;65.83;100578.13;108464;1279;21979;-80
2022/07/13 03:03:55;;;;;;;2.70;2.10;;;;;;;16.48;65.92;100581.83;108474;1279;22324;-80
2022/07/13 03:06:31;;;;;;;3.10;2.10;;;;;;;16.50;65.96;100583.77;108381;1279;23776;-79
2022/07/13 03:09:02;;;;;;;2.80;1.90;;;;;;;16.53;65.89;100587.30;108538;1279;21989;-81
2022/07/13 03:11:38;;;;;;;2.80;2.20;;;;;;;16.53;65.79;100581.55;108084;1279;22511;-79
2022/07/13 03:14:11;;;;;;;3.80;2.40;;;;;;;16.54;66.03;100581.48;108643;1273;23697;-79
2022/07/13 03:16:56;;;;;;;15.40;4.30;;;;;;;16.56;65.89;100583.52;109014;1267;22100;-79
2022/07/13 03:19:29;;;;;;;5.10;2.40;;;;;;;16.56;65.90;100586.16;109374;1261;23076;-79
2022/07/13 03:22:04;;;;;;;2.50;2.20;;;;;;;16.58;65.93;100585.54;109872;1262;21980;-80
2022/07/13 03:24:49;;;;;;;3.10;2.60;;;;;;;16.59;65.84;100581.11;109881;1263;22051;-80
2022/07/13 03:27:56;;;;;;;3.50;3.10;;;;;;;16.62;66.09;100580.42;110153;1261;21979;-82
2022/07/13 03:30:45;;;;;;;4.10;2.30;;;;;;;16.65;66.18;100582.73;109420;1267;21986;-80
2022/07/13 03:33:21;;;;;;;7.40;4.70;;;;;;;16.69;66.08;100583.06;108741;1273;23590;-80
2022/07/13 03:35:52;;;;;;;4.90;3.10;;;;;;;16.73;66.07;100578.07;108872;1274;22062;-80
2022/07/13 03:38:28;;;;;;;7.30;2.40;;;;;;;16.77;66.04;100583.20;108944;1273;23901;-80
2022/07/13 03:41:00;;;;;;;5.30;2.90;;;;;;;16.79;65.90;100586.02;108719;1273;21984;-82
2022/07/13 03:43:34;;;;;;;4.30;2.90;;;;;;;16.82;66.03;100582.38;108534;1277;22059;-82
2022/07/13 03:46:14;;;;;;;8.30;3.20;;;;;;;16.85;66.04;100584.44;108214;1282;22007;-82
2022/07/13 03:48:51;;;;;;;3.30;2.50;;;;;;;16.87;65.92;100586.66;108430;1276;22003;-82
2022/07/13 03:51:28;;;;;;;4.00;2.70;;;;;;;16.89;65.88;100589.13;108682;1274;22494;-82
2022/07/13 03:54:09;;;;;;;3.10;2.60;;;;;;;16.91;65.98;100584.77;108702;1276;22757;-82
2022/07/13 03:56:39;;;;;;;3.40;2.60;;;;;;;16.93;65.88;100580.63;108383;1278;22004;-82
2022/07/13 03:59:32;;;;;;;4.00;2.50;;;;;;;16.97;66.06;100585.27;108388;1279;21991;-82
2022/07/13 04:02:02;;;;;;;2.80;2.40;;;;;;;17.01;65.91;100578.88;108564;1276;22037;-82
2022/07/13 04:04:50;;;;;;;;;;;;;;;;;;;;;
2022/07/13 04:07:29;;;;;;;7.90;2.80;;;;;;;17.11;65.90;100574.08;108895;1270;21951;-81
2022/07/13 04:09:58;;;;;;;10.60;4.30;;;;;;;17.17;65.74;100582.73;108812;1270;23660;-82
2022/07/13 04:12:29;;;;;;;5.00;3.10;;;;;;;17.24;65.68;100587.70;108702;1276;23590;-80
2022/07/13 04:15:03;;;;;;;5.00;3.10;;;;;;;17.30;65.41;100587.95;108706;1276;22131;-81
2022/07/13 04:17:39;;;;;;;2.90;2.70;;;;;;;17.35;65.60;100586.67;108710;1276;21994;-81
2022/07/13 04:20:23;;;;;;;29.70;8.40;;;;;;;17.42;65.53;100591.39;108401;1280;23848;-80
2022/07/13 04:23:08;;;;;;;4.00;3.00;;;;;;;17.48;65.36;100588.91;108678;1279;23728;-82
2022/07/13 04:25:45;;;;;;;3.20;2.80;;;;;;;17.56;65.36;100585.55;108546;1276;23673;-80
2022/07/13 04:28:18;;;;;;;4.10;2.70;;;;;;;17.64;65.31;100587.48;108631;1279;21999;-81
2022/07/13 04:30:50;;;;;;;2.60;2.40;;;;;;;17.72;65.17;100587.98;108637;1279;22038;-82
2022/07/13 04:33:29;;;;;;;6.30;3.50;;;;;;;17.78;64.87;100591.05;108598;1279;21998;-81
2022/07/13 04:36:01;;;;;;;2.90;2.50;;;;;;;17.84;64.75;100586.48;108417;1282;22113;-81
2022/07/13 04:38:37;;;;;;;3.80;2.80;;;;;;;17.91;64.66;100588.02;108818;1273;22025;-81
2022/07/13 04:41:13;;;;;;;8.60;3.50;;;;;;;17.99;64.65;100591.77;109169;1267;22033;-80
2022/07/13 04:44:30;;;;;;;4.10;2.20;;;;;;;18.09;64.77;100588.82;109277;1267;22051;-81
2022/07/13 04:47:15;;;;;;;5.90;3.00;;;;;;;18.20;64.64;100584.95;109667;1267;22055;-80
2022/07/13 04:50:08;;;;;;;3.50;2.50;;;;;;;18.35;64.76;100584.27;109469;1267;24300;-79
2022/07/13 04:52:50;;;;;;;8.70;2.50;;;;;;;18.53;64.49;100587.55;109232;1267;22132;-80
2022/07/13 04:55:24;;;;;;;4.40;2.40;;;;;;;18.67;64.15;100580.71;108875;1270;21991;-79
2022/07/13 04:57:56;;;;;;;26.80;6.20;;;;;;;18.84;64.11;100580.79;109572;1267;23782;-77
2022/07/13 05:00:29;;;;;;;4.00;2.70;;;;;;;19.06;64.01;100581.71;108850;1270;22000;-79
2022/07/13 05:03:16;;;;;;;5.40;2.90;;;;;;;19.27;63.34;100584.31;108856;1270;24151;-80
2022/07/13 05:05:50;;;;;;;4.00;2.30;;;;;;;19.41;62.85;100586.52;108460;1276;22774;-78
2022/07/13 05:08:20;;;;;;;5.40;1.70;;;;;;;19.55;62.47;100583.73;108382;1276;21992;-78
2022/07/13 05:10:54;;;;;;;6.30;2.20;;;;;;;19.70;62.32;100581.93;108411;1276;23779;-79
2022/07/13 05:13:27;;;;;;;4.50;2.30;;;;;;;19.88;61.87;100585.13;108699;1273;22034;-80
2022/07/13 05:15:58;;;;;;;3.50;2.40;;;;;;;20.02;61.26;100581.80;108480;1273;22089;-81
2022/07/13 05:18:29;;;;;;;3.10;2.50;;;;;;;20.14;61.18;100580.75;108602;1279;23092;-80
2022/07/13 05:21:11;;;;;;;2.90;2.10;;;;;;;20.26;60.60;100583.48;108404;1279;22995;-79
2022/07/13 05:23:43;;;;;;;3.40;2.00;;;;;;;20.37;60.23;100580.79;108529;1276;22018;-79
2022/07/13 05:26:13;;;;;;;3.30;1.90;;;;;;;20.48;59.87;100578.54;108889;1267;21978;-79
2022/07/13 05:28:42;;;;;;;3.80;1.90;;;;;;;20.62;59.75;100577.83;108935;1269;21996;-81
2022/07/13 05:31:13;;;;;;;2.60;1.80;;;;;;;20.73;59.17;100579.79;109092;1269;22018;-79
2022/07/13 05:33:47;;;;;;;4.30;1.90;;;;;;;20.84;59.19;100582.34;108779;1271;23791;-80
2022/07/13 05:36:20;;;;;;;2.10;1.50;;;;;;;21.01;59.01;100583.40;108891;1267;21976;-79
2022/07/13 05:38:52;;;;;;;4.40;1.60;;;;;;;21.21;58.80;100588.25;109501;1267;22922;-77
2022/07/13 05:41:23;;;;;;;2.60;1.70;;;;;;;21.49;58.46;100594.23;109526;1266;22631;-79
2022/07/13 05:43:54;;;;;;;3.30;1.50;;;;;;;21.76;57.50;100592.31;109168;1266;22086;-78
2022/07/13 05:46:23;;;;;;;2.80;1.70;;;;;;;21.99;56.50;100594.09;109224;1267;22067;-81
2022/07/13 05:48:57;;;;;;;2.50;1.40;;;;;;;22.19;55.90;100591.25;109567;1265;23064;-79
2022/07/13 05:51:29;;;;;;;2.90;1.50;;;;;;;22.42;55.23;100594.39;109338;1264;22050;-79
2022/07/13 05:54:06;;;;;;;2.60;1.50;;;;;;;22.70;54.66;100592.38;109777;1263;21974;-79
2022/07/13 05:56:57;;;;;;;2.20;1.30;;;;;;;23.04;54.06;100595.55;109749;1261;22017;-79
2022/07/13 05:59:26;;;;;;;4.00;1.20;;;;;;;23.43;53.68;100600.49;108788;1270;21979;-79
2022/07/13 06:01:56;;;;;;;3.70;1.00;;;;;;;23.80;52.38;100598.02;109101;1268;22093;-78
2022/07/13 06:04:26;;;;;;;3.70;1.30;;;;;;;24.15;51.51;100596.27;109165;1267;21974;-79
2022/07/13 06:06:55;;;;;;;2.20;1.00;;;;;;;24.53;50.68;100597.86;108966;1273;23053;-80
2022/07/13 06:09:26;;;;;;;4.30;1.30;;;;;;;24.85;49.54;100593.85;108676;1271;22303;-78
2022/07/13 06:11:59;;;;;;;2.70;1.20;;;;;;;25.15;48.69;100595.67;108856;1273;22993;-82
2022/07/13 06:14:35;;;;;;;2.20;1.00;;;;;;;25.44;47.96;100593.04;108649;1273;22770;-78
2022/07/13 06:17:12;;;;;;;4.00;1.30;;;;;;;25.71;46.94;100596.71;108431;1276;22096;-79
2022/07/13 06:19:45;;;;;;;3.20;1.40;;;;;;;25.90;46.18;100596.24;108452;1274;22445;-79
2022/07/13 06:22:15;;;;;;;2.00;1.00;;;;;;;26.11;46.38;100595.47;108313;1279;23133;-79
2022/07/13 06:24:48;;;;;;;2.20;0.80;;;;;;;26.47;45.93;100589.85;108322;1273;21994;-78
2022/07/13 06:27:25;;;;;;;3.50;1.30;;;;;;;26.77;44.50;100594.46;108671;1273;21999;-79
2022/07/13 06:29:54;;;;;;;2.40;1.10;;;;;;;26.92;44.06;100589.96;108972;1272;22741;-80
2022/07/13 06:32:24;;;;;;;2.10;0.90;;;;;;;27.16;43.76;100588.79;108685;1273;21963;-78
2022/07/13 06:34:54;;;;;;;1.90;0.90;;;;;;;27.33;43.41;100589.70;108493;1270;23618;-79
2022/07/13 06:37:34;;;;;;;2.00;0.90;;;;;;;27.52;42.58;100591.41;108853;1270;23064;-78
2022/07/13 06:40:15;;;;;;;2.80;1.10;;;;;;;27.67;41.62;100593.00;109151;1267;22042;-78
2022/07/13 06:42:47;;;;;;;3.80;1.00;;;;;;;27.71;41.29;100595.23;109301;1266;23065;-80
2022/07/13 06:45:19;;;;;;;1.80;1.00;;;;;;;27.77;41.22;100586.31;109258;1267;23007;-79
2022/07/13 06:47:51;;;;;;;2.70;1.10;;;;;;;27.87;40.95;100584.44;109574;1264;21992;-80
2022/07/13 06:50:21;;;;;;;4.10;0.90;;;;;;;28.05;40.79;100584.11;109217;1267;23592;-78
2022/07/13 06:52:50;;;;;;;2.70;1.10;;;;;;;28.28;40.23;100588.94;109594;1264;21972;-79
2022/07/13 06:55:20;;;;;;;3.20;1.10;;;;;;;28.42;39.26;100586.31;109180;1267;22048;-79
2022/07/13 06:57:49;;;;;;;2.60;0.90;;;;;;;28.49;38.97;100589.00;109251;1267;21994;-79
2022/07/13 07:00:18;;;;;;;1.90;0.70;;;;;;;28.52;38.85;100585.55;109901;1261;23096;-79
2022/07/13 07:02:47;;;;;;;2.30;1.00;;;;;;;28.52;38.17;100582.83;109644;1261;22736;-79
2022/07/13 07:05:16;;;;;;;1.00;0.70;;;;;;;28.37;38.17;100577.79;109532;1260;24042;-79
2022/07/13 07:07:46;;;;;;;1.90;1.10;;;;;;;28.31;38.34;100580.22;109688;1260;21981;-79
2022/07/13 07:10:15;;;;;;;2.00;0.70;;;;;;;28.21;38.20;100580.27;109675;1263;22052;-79
2022/07/13 07:12:44;;;;;;;1.50;0.80;;;;;;;28.10;37.80;100578.20;109697;1261;22063;-79
2022/07/13 07:15:13;;;;;;;2.80;0.90;;;;;;;28.06;38.37;100580.62;109099;1267;22983;-78
2022/07/13 07:17:47;;;;;;;0.90;0.60;;;;;;;28.28;38.71;100583.34;109211;1267;23529;-78
2022/07/13 07:20:17;;;;;;;2.00;0.70;;;;;;;28.47;37.45;100580.42;109188;1267;21989;-78
2022/07/13 07:22:47;;;;;;;2.80;0.70;;;;;;;28.62;37.55;100580.77;109111;1267;23611;-78
2022/07/13 07:25:16;;;;;;;1.80;0.60;;;;;;;28.80;36.54;100584.70;109261;1267;22295;-78
2022/07/13 07:27:45;;;;;;;2.40;0.90;;;;;;;28.79;36.14;100587.54;109205;1267;21995;-79
2022/07/13 07:30:14;;;;;;;5.00;0.70;;;;;;;28.83;36.37;100586.05;109206;1267;21989;-79
2022/07/13 07:32:43;;;;;;;3.20;0.80;;;;;;;28.86;35.79;100587.38;109191;1263;22681;-78
2022/07/13 07:35:12;;;;;;;0.80;0.60;;;;;;;28.80;35.74;100586.55;109556;1260;23613;-78
2022/07/13 07:37:43;;;;;;;2.50;0.50;;;;;;;28.84;36.06;100590.60;109897;1261;23079;-77
2022/07/13 07:40:12;;;;;;;3.00;0.70;;;;;;;28.92;35.64;100593.04;109637;1263;22771;-78
2022/07/13 07:42:41;;;;;;;2.00;0.50;;;;;;;29.02;35.02;100597.89;109578;1263;21981;-79
2022/07/13 07:45:10;;;;;;;3.00;0.70;;;;;;;29.03;34.41;100601.17;109128;1267;22090;-79
2022/07/13 07:47:40;;;;;;;1.10;0.60;;;;;;;28.89;34.51;100601.66;108907;1268;21967;-78
2022/07/13 07:50:09;;;;;;;2.30;0.60;;;;;;;28.80;35.05;100597.48;108902;1270;21988;-79
2022/07/13 07:52:38;;;;;;;2.30;0.60;;;;;;;28.81;34.80;100596.81;108692;1273;23095;-78
2022/07/13 07:55:24;;;;;;;1.10;0.60;;;;;;;28.88;34.64;100602.91;108455;1273;22061;-79
2022/07/13 07:57:53;;;;;;;5.10;0.90;;;;;;;28.96;33.91;100598.29;108393;1275;23806;-78
2022/07/13 08:00:22;;;;;;;1.30;0.50;;;;;;;28.91;33.87;100601.26;108397;1276;22362;-78
2022/07/13 08:02:51;;;;;;;0.90;0.60;;;;;;;28.87;34.25;100600.64;108362;1276;22018;-78
2022/07/13 08:05:21;;;;;;;1.20;0.60;;;;;;;29.01;34.60;100600.92;108573;1276;22069;-79
2022/07/13 08:07:50;;;;;;;1.20;0.80;;;;;;;29.18;34.15;100602.75;108546;1270;21990;-79
2022/07/13 08:10:19;;;;;;;3.10;0.80;;;;;;;29.29;33.77;100595.25;108698;1273;22774;-83
2022/07/13 08:12:59;;;;;;;1.20;0.80;;;;;;;29.46;33.66;100595.13;108679;1273;23488;-81
2022/07/13 08:15:29;;;;;;;2.50;0.80;;;;;;;29.52;33.20;100599.85;108623;1273;23797;-79
2022/07/13 08:17:59;;;;;;;1.20;0.70;;;;;;;29.33;32.96;100595.75;108993;1267;21989;-80
2022/07/13 08:20:29;;;;;;;1.30;0.50;;;;;;;29.22;33.23;100594.61;108902;1270;22297;-80
2022/07/13 08:22:58;;;;;;;2.10;0.40;;;;;;;29.20;33.27;100596.48;108868;1267;22767;-80
2022/07/13 08:25:28;;;;;;;2.80;0.60;;;;;;;29.13;32.96;100594.25;108902;1270;23072;-79
2022/07/13 08:27:58;;;;;;;4.10;0.50;;;;;;;29.15;32.81;100601.73;109199;1260;22105;-81
2022/07/13 08:30:27;;;;;;;2.40;0.50;;;;;;;29.05;32.08;100603.94;109378;1261;21986;-80
2022/07/13 08:32:56;;;;;;;3.60;0.80;;;;;;;28.97;32.04;100600.73;109550;1260;21996;-80
2022/07/13 08:38:35;;;;;;;2.40;0.80;;;;;;;29.01;32.01;100600.16;109783;1260;23583;-80
2022/07/13 08:41:05;;;;;;;2.90;0.50;;;;;;;29.11;31.62;100598.45;109947;1260;23672;-80
2022/07/13 08:43:34;;;;;;;1.30;0.40;;;;;;;29.12;31.36;100591.27;109293;1267;22391;-80
2022/07/13 08:46:08;;;;;;;2.20;0.50;;;;;;;29.19;31.48;100585.12;108804;1270;23851;-79
2022/07/13 08:48:41;;;;;;;1.60;0.50;;;;;;;29.36;30.85;100592.19;108970;1271;22872;-79
2022/07/13 08:51:10;;;;;;;2.80;0.60;;;;;;;29.41;30.25;100597.95;108616;1277;21995;-80
2022/07/13 08:53:39;;;;;;;2.40;0.70;;;;;;;29.39;30.29;100592.86;108023;1279;24392;-80
2022/07/13 08:56:08;;;;;;;2.10;0.70;;;;;;;29.46;30.64;100594.96;107951;1282;21989;-81
2022/07/13 08:58:37;;;;;;;2.10;0.50;;;;;;;29.49;30.37;100594.11;108147;1280;21993;-81
2022/07/13 09:01:11;;;;;;;7.60;0.70;;;;;;;29.45;29.83;100603.19;108067;1276;22004;-80
2022/07/13 09:03:42;;;;;;;4.00;0.80;;;;;;;29.39;29.49;100602.33;108009;1279;23685;-79
2022/07/13 09:06:40;;;;;;;1.30;0.40;;;;;;;29.40;29.33;100604.45;108362;1278;23107;-79
2022/07/13 09:09:35;;;;;;;0.80;0.40;;;;;;;29.55;28.90;100605.71;108354;1279;21990;-80
2022/07/13 09:12:26;;;;;;;1.80;0.40;;;;;;;29.51;28.10;100603.67;108687;1273;22002;-80
2022/07/13 09:15:06;;;;;;;3.20;0.60;;;;;;;29.56;28.32;100598.25;108700;1273;22024;-80
2022/07/13 09:17:44;;;;;;;7.40;0.70;;;;;;;29.60;28.15;100602.95;108556;1276;23037;-80
2022/07/13 09:20:13;;;;;;;3.20;0.60;;;;;;;29.49;27.81;100602.23;108664;1273;22557;-80
2022/07/13 09:22:56;;;;;;;5.60;0.60;;;;;;;29.41;27.99;100607.76;108870;1270;23653;-79
2022/07/13 09:25:36;;;;;;;4.70;0.90;;;;;;;29.35;27.71;100610.81;109135;1270;23724;-80
2022/07/13 09:28:09;;;;;;;4.10;1.20;;;;;;;29.22;27.77;100610.81;108820;1270;21996;-78
2022/07/13 09:30:43;;;;;;;1.60;0.40;;;;;;;29.10;27.99;100607.48;108483;1276;22071;-81
2022/07/13 09:33:12;;;;;;;1.50;0.60;;;;;;;28.91;28.12;100608.11;108674;1276;22066;-80
2022/07/13 09:36:20;;;;;;;4.00;0.50;;;;;;;28.73;28.34;100612.96;108772;1270;22309;-80
2022/07/13 09:38:51;;;;;;;1.50;0.60;;;;;;;28.56;28.53;100604.93;108647;1270;23082;-80
2022/07/13 09:41:24;;;;;;;1.00;0.40;;;;;;;28.55;28.64;100598.25;108571;1276;22036;-80
2022/07/13 09:47:05;;;;;;;1.80;0.40;;;;;;;28.63;28.52;100595.04;108734;1273;21995;-80
2022/07/13 09:49:44;;;;;;;3.70;0.50;;;;;;;28.70;28.58;100600.32;108952;1267;23749;-80
2022/07/13 09:52:19;;;;;;;3.80;0.50;;;;;;;28.77;28.33;100601.95;108673;1273;23721;-80
2022/07/13 09:54:51;;;;;;;3.00;0.60;;;;;;;28.83;28.11;100606.80;108661;1273;22220;-80
2022/07/13 09:57:23;;;;;;;2.70;0.60;;;;;;;28.77;27.64;100606.58;108705;1272;22226;-80
2022/07/13 09:59:53;;;;;;;2.10;0.50;;;;;;;28.77;27.96;100604.20;108229;1276;22185;-80
2022/07/13 10:02:22;;;;;;;3.20;0.40;;;;;;;28.93;27.37;100605.27;108197;1278;23038;-81
2022/07/13 10:04:55;;;;;;;0.60;0.30;;;;;;;29.11;27.24;100607.48;108212;1278;22090;-81
2022/07/13 10:07:25;;;;;;;1.70;0.50;;;;;;;29.32;26.91;100605.21;107987;1278;24339;-80
2022/07/13 10:09:54;;;;;;;1.90;0.60;;;;;;;29.45;26.26;100607.65;108261;1274;22162;-80
2022/07/13 10:12:23;;;;;;;1.40;0.40;;;;;;;29.61;25.95;100607.52;108654;1274;22052;-80
2022/07/13 10:14:53;;;;;;;1.00;0.40;;;;;;;29.77;25.55;100605.77;108714;1273;23091;-80
2022/07/13 10:17:22;;;;;;;1.60;0.50;;;;;;;29.92;25.27;100605.75;108764;1267;21980;-80
2022/07/13 10:20:08;;;;;;;1.10;0.40;;;;;;;30.05;24.55;100605.00;109038;1263;23044;-79
2022/07/13 10:22:48;;;;;;;1.80;0.50;;;;;;;30.11;24.42;100601.48;108928;1267;22109;-80
2022/07/13 10:25:18;;;;;;;1.90;0.50;;;;;;;30.08;24.21;100605.94;108947;1268;22078;-80
2022/07/13 10:28:03;;;;;;;1.30;0.30;;;;;;;29.98;24.38;100606.54;108897;1267;22117;-79
2022/07/13 10:30:32;;;;;;;2.60;0.40;;;;;;;29.85;24.57;100604.31;109081;1267;22532;-80
2022/07/13 10:33:32;;;;;;;4.10;0.60;;;;;;;29.72;24.74;100597.23;108678;1273;23058;-80
2022/07/13 10:36:01;;;;;;;1.60;0.40;;;;;;;29.51;24.97;100594.17;107992;1284;22181;-80
2022/07/13 10:38:34;;;;;;;1.30;0.60;;;;;;;29.31;25.40;100581.95;107846;1285;22463;-80
2022/07/13 10:41:22;;;;;;;7.90;1.20;;;;;;;29.28;25.84;100573.33;107872;1282;22245;-80
2022/07/13 10:43:55;;;;;;;2.50;0.60;;;;;;;29.33;26.33;100571.30;108041;1283;21975;-81
2022/07/13 10:46:49;;;;;;;5.10;1.10;;;;;;;29.34;26.45;100570.75;107986;1282;23861;-80
2022/07/13 10:49:47;;;;;;;4.70;0.90;;;;;;;29.29;26.81;100563.36;107940;1283;22028;-80
2022/07/13 10:52:21;;;;;;;5.30;0.90;;;;;;;29.21;27.30;100558.48;107909;1282;22081;-80
2022/07/13 10:55:30;;;;;;;2.60;1.00;;;;;;;29.18;27.55;100556.40;108328;1276;23631;-80
2022/07/13 10:58:03;;;;;;;3.10;0.90;;;;;;;29.10;28.07;100551.58;108582;1276;22004;-80
2022/07/13 11:00:43;;;;;;;2.90;1.20;;;;;;;29.14;28.38;100549.14;107913;1282;22006;-79
2022/07/13 11:03:44;;;;;;;1.10;0.50;;;;;;;29.27;28.38;100554.55;107522;1287;21996;-80
2022/07/13 11:06:23;;;;;;;5.90;0.70;;;;;;;29.38;28.08;100556.56;107474;1286;23510;-81
2022/07/13 11:09:18;;;;;;;5.90;0.80;;;;;;;29.41;27.34;100560.89;107102;1290;23681;-80
2022/07/13 11:11:53;;;;;;;1.90;0.60;;;;;;;29.39;26.53;100568.15;106608;1296;22019;-82
2022/07/13 11:14:36;;;;;;;4.70;1.40;;;;;;;29.29;25.87;100567.33;106910;1292;22180;-81
2022/07/13 11:17:18;;;;;;;5.40;1.20;;;;;;;29.27;25.74;100565.98;107009;1292;22598;-80
2022/07/13 11:19:52;;;;;;;3.00;1.00;;;;;;;29.32;25.90;100566.10;106778;1296;22019;-80
2022/07/13 11:22:26;;;;;;;3.50;0.60;;;;;;;29.39;25.68;100566.58;106614;1293;22054;-78
2022/07/13 11:25:38;;;;;;;4.10;0.90;;;;;;;29.45;25.47;100569.13;106889;1295;23753;-80
2022/07/13 11:28:30;;;;;;;6.30;0.70;;;;;;;29.45;25.63;100564.66;106902;1294;24620;-78
2022/07/13 11:31:03;;;;;;;5.50;0.60;;;;;;;29.54;25.42;100561.02;106907;1295;22015;-80
2022/07/13 11:33:34;;;;;;;6.10;0.80;;;;;;;29.54;25.37;100568.25;107077;1292;23111;-79
2022/07/13 11:36:03;;;;;;;3.10;0.70;;;;;;;29.45;25.11;100560.25;107024;1284;22992;-79
2022/07/13 11:38:45;;;;;;;4.40;0.70;;;;;;;29.38;25.27;100550.96;107820;1282;21996;-79
2022/07/13 11:41:19;;;;;;;9.90;1.20;;;;;;;29.40;25.31;100558.84;108081;1279;22249;-81
2022/07/13 11:43:52;;;;;;;3.30;0.80;;;;;;;29.40;25.11;100556.50;107994;1281;23053;-78
2022/07/13 11:46:30;;;;;;;5.30;0.80;;;;;;;29.38;25.31;100548.14;108247;1279;21999;-78
2022/07/13 11:49:09;;;;;;;3.20;1.20;;;;;;;29.44;25.81;100546.05;108416;1279;23631;-83
2022/07/13 11:51:42;;;;;;;4.80;0.60;;;;;;;29.56;25.62;100538.30;108110;1284;22053;-81
2022/07/13 11:54:17;;;;;;;6.00;0.80;;;;;;;29.64;25.64;100535.85;108297;1275;376494;-79
2022/07/13 11:56:53;;;;;;;7.10;1.10;;;;;;;29.70;25.99;100536.20;108515;1273;22109;-78
2022/07/13 11:59:44;;;;;;;2.60;0.50;;;;;;;29.74;26.05;100533.38;108681;1273;23051;-79
2022/07/13 12:02:16;;;;;;;3.30;0.90;;;;;;;29.75;25.64;100529.56;108393;1278;22255;-82
2022/07/13 12:04:48;;;;;;;1.10;0.40;;;;;;;29.71;25.77;100534.12;108282;1279;22902;-79